sensor_id;sensor_type;location;lat;lon;timestamp;pressure;altitude;pressure_sealevel;temperature;humidity
11878;BME280;5998;42.676;23.268;2022-09-09T00:00:47;95041.38;;;18.44;100.00
11878;BME280;5998;42.676;23.268;2022-09-09T00:03:17;95035.16;;;18.43;100.00
11878;BME280;5998;42.676;23.268;2022-09-09T00:05:52;95037.09;;;18.39;100.00
11878;BME280;5998;42.676;23.268;2022-09-09T00:08:29;95030.47;;;18.37;100.00
11878;BME280;5998;42.676;23.268;2022-09-09T00:11:03;95033.56;;;18.32;100.00
11878;BME280;5998;42.676;23.268;2022-09-09T00:13:36;95035.13;;;18.29;100.00
11878;BME280;5998;42.676;23.268;2022-09-09T00:16:08;95033.16;;;18.29;100.00
11878;BME280;5998;42.676;23.268;2022-09-09T00:18:44;95035.84;;;18.22;100.00
11878;BME280;5998;42.676;23.268;2022-09-09T00:21:14;95021.03;;;18.16;100.00
11878;BME280;5998;42.676;23.268;2022-09-09T00:23:48;95017.91;;;18.14;100.00
11878;BME280;5998;42.676;23.268;2022-09-09T00:26:20;95021.41;;;18.11;100.00
11878;BME280;5998;42.676;23.268;2022-09-09T00:28:56;95015.53;;;18.06;100.00
11878;BME280;5998;42.676;23.268;2022-09-09T00:31:28;95001.47;;;17.97;100.00
11878;BME280;5998;42.676;23.268;2022-09-09T00:34:00;95000.31;;;18.05;100.00
11878;BME280;5998;42.676;23.268;2022-09-09T00:36:31;94984.34;;;17.93;100.00
11878;BME280;5998;42.676;23.268;2022-09-09T00:39:02;95001.94;;;18.09;100.00
11878;BME280;5998;42.676;23.268;2022-09-09T00:41:36;95001.53;;;18.11;100.00
11878;BME280;5998;42.676;23.268;2022-09-09T00:44:20;94998.41;;;18.02;100.00
11878;BME280;5998;42.676;23.268;2022-09-09T00:47:06;95003.06;;;18.05;100.00
11878;BME280;5998;42.676;23.268;2022-09-09T00:49:44;94999.94;;;18.03;100.00
11878;BME280;5998;42.676;23.268;2022-09-09T00:52:25;94998.75;;;18.00;100.00
11878;BME280;5998;42.676;23.268;2022-09-09T00:55:05;94999.91;;;17.99;100.00
11878;BME280;5998;42.676;23.268;2022-09-09T00:57:35;95009.28;;;18.02;100.00
11878;BME280;5998;42.676;23.268;2022-09-09T01:00:21;95006.94;;;18.00;100.00
11878;BME280;5998;42.676;23.268;2022-09-09T01:03:11;95003.44;;;18.03;100.00
11878;BME280;5998;42.676;23.268;2022-09-09T01:05:45;95004.63;;;18.06;100.00
11878;BME280;5998;42.676;23.268;2022-09-09T01:08:24;95005.75;;;17.98;100.00
11878;BME280;5998;42.676;23.268;2022-09-09T01:10:58;95001.47;;;17.93;100.00
11878;BME280;5998;42.676;23.268;2022-09-09T01:13:27;95007.28;;;17.92;100.00
11878;BME280;5998;42.676;23.268;2022-09-09T01:15:57;95006.09;;;17.89;100.00
11878;BME280;5998;42.676;23.268;2022-09-09T01:18:27;95003.75;;;17.84;100.00
11878;BME280;5998;42.676;23.268;2022-09-09T01:21:01;94990.03;;;17.70;100.00
11878;BME280;5998;42.676;23.268;2022-09-09T01:23:42;94984.94;;;17.65;100.00
11878;BME280;5998;42.676;23.268;2022-09-09T01:26:18;94997.91;;;17.82;100.00
11878;BME280;5998;42.676;23.268;2022-09-09T01:28:47;94999.03;;;17.78;100.00
11878;BME280;5998;42.676;23.268;2022-09-09T01:31:18;95003.28;;;17.72;100.00
11878;BME280;5998;42.676;23.268;2022-09-09T01:33:45;95008.72;;;17.68;100.00
11878;BME280;5998;42.676;23.268;2022-09-09T01:36:18;95011.38;;;17.61;100.00
11878;BME280;5998;42.676;23.268;2022-09-09T01:38:48;95013.75;;;17.66;100.00
11878;BME280;5998;42.676;23.268;2022-09-09T01:41:16;95015.28;;;17.60;100.00
11878;BME280;5998;42.676;23.268;2022-09-09T01:43:42;95005.03;;;17.46;100.00
11878;BME280;5998;42.676;23.268;2022-09-09T01:46:12;95021.44;;;17.53;100.00
11878;BME280;5998;42.676;23.268;2022-09-09T01:48:39;95021.06;;;17.55;100.00
11878;BME280;5998;42.676;23.268;2022-09-09T01:51:08;95019.75;;;17.42;100.00
11878;BME280;5998;42.676;23.268;2022-09-09T01:53:35;95029.94;;;17.48;100.00
11878;BME280;5998;42.676;23.268;2022-09-09T01:56:11;95033.41;;;17.45;100.00
11878;BME280;5998;42.676;23.268;2022-09-09T01:58:52;95026.06;;;17.53;100.00
11878;BME280;5998;42.676;23.268;2022-09-09T02:01:28;95022.16;;;17.50;100.00
11878;BME280;5998;42.676;23.268;2022-09-09T02:04:05;95021.38;;;17.46;100.00
11878;BME280;5998;42.676;23.268;2022-09-09T02:06:38;95026.38;;;17.44;100.00
11878;BME280;5998;42.676;23.268;2022-09-09T02:09:07;95017.47;;;17.47;100.00
11878;BME280;5998;42.676;23.268;2022-09-09T02:11:37;95019.44;;;17.47;100.00
11878;BME280;5998;42.676;23.268;2022-09-09T02:14:08;95011.22;;;17.43;100.00
11878;BME280;5998;42.676;23.268;2022-09-09T02:16:40;95008.44;;;17.36;100.00
11878;BME280;5998;42.676;23.268;2022-09-09T02:19:11;95011.91;;;17.30;100.00
11878;BME280;5998;42.676;23.268;2022-09-09T02:21:42;95002.44;;;17.13;100.00
11878;BME280;5998;42.676;23.268;2022-09-09T02:24:12;95010.72;;;17.27;100.00
11878;BME280;5998;42.676;23.268;2022-09-09T02:26:42;95008.78;;;17.31;100.00
11878;BME280;5998;42.676;23.268;2022-09-09T02:29:14;95010.34;;;17.29;100.00
11878;BME280;5998;42.676;23.268;2022-09-09T02:31:44;95009.94;;;17.27;100.00
11878;BME280;5998;42.676;23.268;2022-09-09T02:34:13;95018.09;;;17.27;100.00
11878;BME280;5998;42.676;23.268;2022-09-09T02:36:43;95017.66;;;17.21;100.00
11878;BME280;5998;42.676;23.268;2022-09-09T02:39:12;95028.25;;;17.30;100.00
11878;BME280;5998;42.676;23.268;2022-09-09T02:41:41;95036.81;;;17.32;100.00
11878;BME280;5998;42.676;23.268;2022-09-09T02:44:10;95032.16;;;17.32;100.00
11878;BME280;5998;42.676;23.268;2022-09-09T02:46:49;95043.81;;;17.33;100.00
11878;BME280;5998;42.676;23.268;2022-09-09T02:49:27;95022.00;;;17.29;100.00
11878;BME280;5998;42.676;23.268;2022-09-09T02:52:01;95015.00;;;17.28;100.00
11878;BME280;5998;42.676;23.268;2022-09-09T02:54:30;95023.22;;;17.35;100.00
11878;BME280;5998;42.676;23.268;2022-09-09T02:57:02;95017.34;;;17.33;100.00
11878;BME280;5998;42.676;23.268;2022-09-09T02:59:30;95025.88;;;17.28;100.00
11878;BME280;5998;42.676;23.268;2022-09-09T03:01:59;95037.94;;;17.27;100.00
11878;BME280;5998;42.676;23.268;2022-09-09T03:04:26;95024.34;;;17.31;100.00
11878;BME280;5998;42.676;23.268;2022-09-09T03:06:53;95023.38;;;17.09;100.00
11878;BME280;5998;42.676;23.268;2022-09-09T03:09:19;95030.06;;;17.15;100.00
11878;BME280;5998;42.676;23.268;2022-09-09T03:11:46;95028.13;;;17.16;100.00
11878;BME280;5998;42.676;23.268;2022-09-09T03:14:13;95024.22;;;17.13;100.00
11878;BME280;5998;42.676;23.268;2022-09-09T03:16:39;95028.47;;;17.10;100.00
11878;BME280;5998;42.676;23.268;2022-09-09T03:19:09;95019.88;;;17.05;100.00
11878;BME280;5998;42.676;23.268;2022-09-09T03:21:35;95025.25;;;17.01;100.00
11878;BME280;5998;42.676;23.268;2022-09-09T03:24:02;95018.97;;;16.94;100.00
11878;BME280;5998;42.676;23.268;2022-09-09T03:26:29;95018.59;;;16.95;100.00
11878;BME280;5998;42.676;23.268;2022-09-09T03:28:57;95016.66;;;16.96;100.00
11878;BME280;5998;42.676;23.268;2022-09-09T03:31:25;95022.94;;;17.00;100.00
11878;BME280;5998;42.676;23.268;2022-09-09T03:33:55;95013.53;;;16.94;100.00
11878;BME280;5998;42.676;23.268;2022-09-09T03:36:25;95020.53;;;16.95;100.00
11878;BME280;5998;42.676;23.268;2022-09-09T03:38:53;95022.09;;;16.96;100.00
11878;BME280;5998;42.676;23.268;2022-09-09T03:41:20;95011.53;;;16.87;100.00
11878;BME280;5998;42.676;23.268;2022-09-09T03:43:49;95015.81;;;16.88;100.00
11878;BME280;5998;42.676;23.268;2022-09-09T03:46:16;95014.22;;;16.84;100.00
11878;BME280;5998;42.676;23.268;2022-09-09T03:48:43;95021.25;;;16.88;100.00
11878;BME280;5998;42.676;23.268;2022-09-09T03:51:09;95022.00;;;16.85;100.00
11878;BME280;5998;42.676;23.268;2022-09-09T03:53:38;95032.44;;;16.80;100.00
11878;BME280;5998;42.676;23.268;2022-09-09T03:56:05;95030.47;;;16.77;100.00
11878;BME280;5998;42.676;23.268;2022-09-09T03:58:33;95024.66;;;16.78;100.00
11878;BME280;5998;42.676;23.268;2022-09-09T04:01:03;95027.03;;;16.83;100.00
11878;BME280;5998;42.676;23.268;2022-09-09T04:03:31;95041.03;;;16.85;100.00
11878;BME280;5998;42.676;23.268;2022-09-09T04:05:59;95039.91;;;16.86;100.00
11878;BME280;5998;42.676;23.268;2022-09-09T04:08:27;95039.56;;;16.91;100.00
11878;BME280;5998;42.676;23.268;2022-09-09T04:10:56;95035.66;;;16.92;100.00
11878;BME280;5998;42.676;23.268;2022-09-09T04:13:24;95036.44;;;16.93;100.00
11878;BME280;5998;42.676;23.268;2022-09-09T04:15:52;95042.69;;;16.93;100.00
11878;BME280;5998;42.676;23.268;2022-09-09T04:18:19;95033.38;;;16.94;100.00
11878;BME280;5998;42.676;23.268;2022-09-09T04:20:47;95031.00;;;16.93;100.00
11878;BME280;5998;42.676;23.268;2022-09-09T04:23:14;95034.91;;;16.92;100.00
11878;BME280;5998;42.676;23.268;2022-09-09T04:25:43;95025.66;;;17.00;100.00
11878;BME280;5998;42.676;23.268;2022-09-09T04:28:13;95034.22;;;17.02;100.00
11878;BME280;5998;42.676;23.268;2022-09-09T04:30:40;95043.19;;;17.06;100.00
11878;BME280;5998;42.676;23.268;2022-09-09T04:33:06;95035.94;;;16.80;100.00
11878;BME280;5998;42.676;23.268;2022-09-09T04:35:33;95044.16;;;16.87;100.00
11878;BME280;5998;42.676;23.268;2022-09-09T04:38:00;95040.78;;;16.97;100.00
11878;BME280;5998;42.676;23.268;2022-09-09T04:40:28;95042.38;;;17.02;100.00
11878;BME280;5998;42.676;23.268;2022-09-09T04:42:57;95042.72;;;17.00;100.00
11878;BME280;5998;42.676;23.268;2022-09-09T04:45:26;95051.78;;;17.08;100.00
11878;BME280;5998;42.676;23.268;2022-09-09T04:47:53;95042.16;;;17.21;100.00
11878;BME280;5998;42.676;23.268;2022-09-09T04:50:20;95038.34;;;17.29;100.00
11878;BME280;5998;42.676;23.268;2022-09-09T04:52:47;95026.34;;;17.37;100.00
11878;BME280;5998;42.676;23.268;2022-09-09T04:55:14;95026.53;;;17.55;100.00
11878;BME280;5998;42.676;23.268;2022-09-09T04:57:40;95036.31;;;17.66;100.00
11878;BME280;5998;42.676;23.268;2022-09-09T05:00:09;95027.88;;;17.86;100.00
11878;BME280;5998;42.676;23.268;2022-09-09T05:02:38;95026.81;;;18.04;100.00
11878;BME280;5998;42.676;23.268;2022-09-09T05:05:06;95013.63;;;18.17;100.00
11878;BME280;5998;42.676;23.268;2022-09-09T05:07:33;95000.47;;;18.33;100.00
11878;BME280;5998;42.676;23.268;2022-09-09T05:09:59;94993.50;;;18.43;100.00
11878;BME280;5998;42.676;23.268;2022-09-09T05:12:26;95001.75;;;18.57;100.00
11878;BME280;5998;42.676;23.268;2022-09-09T05:14:53;95001.78;;;18.74;100.00
11878;BME280;5998;42.676;23.268;2022-09-09T05:17:20;95008.03;;;18.93;100.00
11878;BME280;5998;42.676;23.268;2022-09-09T05:19:48;95001.44;;;19.08;100.00
11878;BME280;5998;42.676;23.268;2022-09-09T05:22:18;94972.97;;;19.19;100.00
11878;BME280;5998;42.676;23.268;2022-09-09T05:24:46;94968.28;;;19.30;100.00
11878;BME280;5998;42.676;23.268;2022-09-09T05:27:16;94988.59;;;19.51;100.00
11878;BME280;5998;42.676;23.268;2022-09-09T05:29:44;94989.38;;;19.58;100.00
11878;BME280;5998;42.676;23.268;2022-09-09T05:32:11;94992.47;;;19.53;100.00
11878;BME280;5998;42.676;23.268;2022-09-09T05:34:40;94984.66;;;19.59;100.00
11878;BME280;5998;42.676;23.268;2022-09-09T05:37:08;94984.66;;;19.37;100.00
11878;BME280;5998;42.676;23.268;2022-09-09T05:39:35;94979.63;;;19.39;100.00
11878;BME280;5998;42.676;23.268;2022-09-09T05:42:03;94990.13;;;19.59;100.00
11878;BME280;5998;42.676;23.268;2022-09-09T05:44:30;94987.41;;;19.59;100.00
11878;BME280;5998;42.676;23.268;2022-09-09T05:46:57;94993.56;;;20.01;100.00
11878;BME280;5998;42.676;23.268;2022-09-09T05:49:24;94994.69;;;20.25;100.00
11878;BME280;5998;42.676;23.268;2022-09-09T05:51:51;94991.53;;;20.30;100.00
11878;BME280;5998;42.676;23.268;2022-09-09T05:54:19;94987.28;;;20.19;100.00
11878;BME280;5998;42.676;23.268;2022-09-09T05:56:46;94995.41;;;20.43;100.00
11878;BME280;5998;42.676;23.268;2022-09-09T05:59:15;94991.69;;;20.78;100.00
11878;BME280;5998;42.676;23.268;2022-09-09T06:01:41;94993.56;;;20.92;100.00
11878;BME280;5998;42.676;23.268;2022-09-09T06:04:08;94999.63;;;20.58;100.00
11878;BME280;5998;42.676;23.268;2022-09-09T06:06:36;95006.78;;;20.35;100.00
11878;BME280;5998;42.676;23.268;2022-09-09T06:09:06;95000.81;;;20.54;100.00
11878;BME280;5998;42.676;23.268;2022-09-09T06:11:37;95005.94;;;20.48;100.00
11878;BME280;5998;42.676;23.268;2022-09-09T06:14:04;95002.31;;;20.66;100.00
11878;BME280;5998;42.676;23.268;2022-09-09T06:16:32;94995.50;;;20.91;100.00
11878;BME280;5998;42.676;23.268;2022-09-09T06:19:00;94999.31;;;21.15;100.00
11878;BME280;5998;42.676;23.268;2022-09-09T06:21:29;95001.09;;;21.36;100.00
11878;BME280;5998;42.676;23.268;2022-09-09T06:23:58;94993.44;;;21.61;100.00
11878;BME280;5998;42.676;23.268;2022-09-09T06:26:27;95003.81;;;21.84;100.00
11878;BME280;5998;42.676;23.268;2022-09-09T06:28:55;95002.78;;;22.08;100.00
11878;BME280;5998;42.676;23.268;2022-09-09T06:31:25;94995.81;;;22.33;100.00
11878;BME280;5998;42.676;23.268;2022-09-09T06:33:54;94988.88;;;22.56;100.00
11878;BME280;5998;42.676;23.268;2022-09-09T06:36:22;94988.94;;;22.52;100.00
11878;BME280;5998;42.676;23.268;2022-09-09T06:38:49;94985.91;;;22.43;100.00
11878;BME280;5998;42.676;23.268;2022-09-09T06:41:18;94984.41;;;22.39;100.00
11878;BME280;5998;42.676;23.268;2022-09-09T06:43:45;94990.81;;;22.25;100.00
11878;BME280;5998;42.676;23.268;2022-09-09T06:46:15;94989.78;;;22.49;100.00
11878;BME280;5998;42.676;23.268;2022-09-09T06:48:43;94989.38;;;22.81;100.00
11878;BME280;5998;42.676;23.268;2022-09-09T06:51:12;95001.19;;;23.05;100.00
11878;BME280;5998;42.676;23.268;2022-09-09T06:53:41;94984.03;;;23.24;100.00
11878;BME280;5998;42.676;23.268;2022-09-09T06:56:20;95003.63;;;23.26;100.00
11878;BME280;5998;42.676;23.268;2022-09-09T06:58:47;95001.03;;;23.42;100.00
11878;BME280;5998;42.676;23.268;2022-09-09T07:01:16;95002.59;;;23.43;100.00
11878;BME280;5998;42.676;23.268;2022-09-09T07:03:46;95005.59;;;23.75;100.00
11878;BME280;5998;42.676;23.268;2022-09-09T07:06:17;95003.44;;;23.86;100.00
11878;BME280;5998;42.676;23.268;2022-09-09T07:08:48;95008.69;;;23.77;100.00
11878;BME280;5998;42.676;23.268;2022-09-09T07:11:15;94997.41;;;24.15;100.00
11878;BME280;5998;42.676;23.268;2022-09-09T07:13:42;94988.50;;;24.50;100.00
11878;BME280;5998;42.676;23.268;2022-09-09T07:16:11;94994.06;;;24.46;100.00
11878;BME280;5998;42.676;23.268;2022-09-09T07:18:40;94986.75;;;24.76;100.00
11878;BME280;5998;42.676;23.268;2022-09-09T07:21:09;94984.28;;;24.81;100.00
11878;BME280;5998;42.676;23.268;2022-09-09T07:23:37;94982.28;;;25.01;100.00
11878;BME280;5998;42.676;23.268;2022-09-09T07:26:08;94982.28;;;25.01;100.00
11878;BME280;5998;42.676;23.268;2022-09-09T07:28:35;94983.09;;;25.18;100.00
11878;BME280;5998;42.676;23.268;2022-09-09T07:31:02;94978.91;;;24.94;100.00
11878;BME280;5998;42.676;23.268;2022-09-09T07:33:30;94977.53;;;24.86;100.00
11878;BME280;5998;42.676;23.268;2022-09-09T07:36:04;94968.16;;;24.99;100.00
11878;BME280;5998;42.676;23.268;2022-09-09T07:38:32;94971.81;;;25.29;100.00
11878;BME280;5998;42.676;23.268;2022-09-09T07:41:04;94979.25;;;25.48;100.00
11878;BME280;5998;42.676;23.268;2022-09-09T07:43:32;94988.72;;;25.47;100.00
11878;BME280;5998;42.676;23.268;2022-09-09T07:46:00;94987.25;;;25.58;100.00
11878;BME280;5998;42.676;23.268;2022-09-09T07:48:29;94991.28;;;25.86;100.00
11878;BME280;5998;42.676;23.268;2022-09-09T07:51:06;94956.78;;;25.94;100.00
11878;BME280;5998;42.676;23.268;2022-09-09T07:53:34;94986.88;;;26.33;96.94
11878;BME280;5998;42.676;23.268;2022-09-09T07:56:05;94995.72;;;26.28;97.08
11878;BME280;5998;42.676;23.268;2022-09-09T07:58:33;94985.88;;;26.27;96.16
11878;BME280;5998;42.676;23.268;2022-09-09T08:00:59;94977.44;;;26.47;93.57
11878;BME280;5998;42.676;23.268;2022-09-09T08:03:26;94978.63;;;26.46;96.22
11878;BME280;5998;42.676;23.268;2022-09-09T08:06:00;94983.84;;;25.99;96.98
11878;BME280;5998;42.676;23.268;2022-09-09T08:08:29;94988.56;;;25.54;99.18
11878;BME280;5998;42.676;23.268;2022-09-09T08:11:02;94983.38;;;25.56;100.00
11878;BME280;5998;42.676;23.268;2022-09-09T08:13:31;94982.44;;;25.62;99.29
11878;BME280;5998;42.676;23.268;2022-09-09T08:16:05;94984.38;;;25.78;100.00
11878;BME280;5998;42.676;23.268;2022-09-09T08:18:32;94984.91;;;25.89;99.07
11878;BME280;5998;42.676;23.268;2022-09-09T08:21:05;94980.00;;;25.80;96.81
11878;BME280;5998;42.676;23.268;2022-09-09T08:23:33;94989.47;;;25.96;96.70
11878;BME280;5998;42.676;23.268;2022-09-09T08:26:04;94979.41;;;26.18;95.47
11878;BME280;5998;42.676;23.268;2022-09-09T08:28:31;94978.00;;;25.81;96.56
11878;BME280;5998;42.676;23.268;2022-09-09T08:31:05;94950.59;;;25.42;96.68
11878;BME280;5998;42.676;23.268;2022-09-09T08:33:32;94977.19;;;25.52;99.24
11878;BME280;5998;42.676;23.268;2022-09-09T08:35:59;94975.50;;;25.87;99.88
11878;BME280;5998;42.676;23.268;2022-09-09T08:38:26;94977.97;;;25.97;98.05
11878;BME280;5998;42.676;23.268;2022-09-09T08:41:00;94984.31;;;26.10;97.63
11878;BME280;5998;42.676;23.268;2022-09-09T08:43:30;94970.38;;;26.17;97.44
11878;BME280;5998;42.676;23.268;2022-09-09T08:46:02;94956.38;;;26.24;98.03
11878;BME280;5998;42.676;23.268;2022-09-09T08:48:43;94972.84;;;26.28;94.31
11878;BME280;5998;42.676;23.268;2022-09-09T08:51:13;94971.34;;;26.52;92.84
11878;BME280;5998;42.676;23.268;2022-09-09T08:53:43;94971.38;;;26.65;100.00
11878;BME280;5998;42.676;23.268;2022-09-09T08:56:14;94959.38;;;26.84;95.77
11878;BME280;5998;42.676;23.268;2022-09-09T08:58:45;94964.63;;;26.94;95.30
11878;BME280;5998;42.676;23.268;2022-09-09T09:01:28;94968.59;;;26.81;90.38
11878;BME280;5998;42.676;23.268;2022-09-09T09:04:02;94956.75;;;26.80;90.73
11878;BME280;5998;42.676;23.268;2022-09-09T09:06:41;94968.59;;;27.19;93.94
11878;BME280;5998;42.676;23.268;2022-09-09T09:09:14;94960.94;;;27.23;90.08
11878;BME280;5998;42.676;23.268;2022-09-09T09:11:48;94968.25;;;27.04;91.12
11878;BME280;5998;42.676;23.268;2022-09-09T09:14:20;94959.63;;;26.89;90.39
11878;BME280;5998;42.676;23.268;2022-09-09T09:16:51;94963.59;;;26.88;90.19
11878;BME280;5998;42.676;23.268;2022-09-09T09:19:19;94961.91;;;26.78;92.94
11878;BME280;5998;42.676;23.268;2022-09-09T09:21:51;94965.97;;;26.74;90.76
11878;BME280;5998;42.676;23.268;2022-09-09T09:24:23;94957.72;;;26.86;94.38
11878;BME280;5998;42.676;23.268;2022-09-09T09:26:54;94962.97;;;26.97;92.60
11878;BME280;5998;42.676;23.268;2022-09-09T09:29:24;94968.47;;;26.97;89.79
11878;BME280;5998;42.676;23.268;2022-09-09T09:31:54;94970.38;;;27.13;89.53
11878;BME280;5998;42.676;23.268;2022-09-09T09:34:22;94955.88;;;27.46;91.37
11878;BME280;5998;42.676;23.268;2022-09-09T09:36:53;94954.72;;;27.69;92.85
11878;BME280;5998;42.676;23.268;2022-09-09T09:39:25;94948.78;;;27.92;90.69
11878;BME280;5998;42.676;23.268;2022-09-09T09:41:52;94948.53;;;27.99;86.44
11878;BME280;5998;42.676;23.268;2022-09-09T09:44:25;94936.72;;;27.99;88.65
11878;BME280;5998;42.676;23.268;2022-09-09T09:47:05;94932.63;;;28.03;88.10
11878;BME280;5998;42.676;23.268;2022-09-09T09:49:32;94939.25;;;28.06;89.46
11878;BME280;5998;42.676;23.268;2022-09-09T09:52:00;94935.69;;;27.71;85.59
11878;BME280;5998;42.676;23.268;2022-09-09T09:54:28;94941.94;;;27.12;86.86
11878;BME280;5998;42.676;23.268;2022-09-09T09:56:56;94939.03;;;27.28;89.83
11878;BME280;5998;42.676;23.268;2022-09-09T09:59:35;94927.44;;;27.46;89.87
11878;BME280;5998;42.676;23.268;2022-09-09T10:02:19;94921.00;;;27.36;89.96
11878;BME280;5998;42.676;23.268;2022-09-09T10:04:46;94941.59;;;27.23;87.78
11878;BME280;5998;42.676;23.268;2022-09-09T10:07:18;94945.47;;;27.13;89.12
11878;BME280;5998;42.676;23.268;2022-09-09T10:09:45;94953.09;;;26.96;86.79
11878;BME280;5998;42.676;23.268;2022-09-09T10:12:19;94953.44;;;26.85;91.22
11878;BME280;5998;42.676;23.268;2022-09-09T10:15:01;94951.84;;;26.72;90.50
11878;BME280;5998;42.676;23.268;2022-09-09T10:17:37;94956.13;;;26.48;91.03
11878;BME280;5998;42.676;23.268;2022-09-09T10:20:18;94956.91;;;26.19;92.71
11878;BME280;5998;42.676;23.268;2022-09-09T10:22:51;94952.97;;;25.88;93.71
11878;BME280;5998;42.676;23.268;2022-09-09T10:25:25;94946.56;;;25.78;99.85
11878;BME280;5998;42.676;23.268;2022-09-09T10:30:55;94960.97;;;25.99;96.25
11878;BME280;5998;42.676;23.268;2022-09-09T10:33:33;94954.91;;;25.75;96.56
11878;BME280;5998;42.676;23.268;2022-09-09T10:36:12;94953.09;;;25.85;97.79
11878;BME280;5998;42.676;23.268;2022-09-09T10:38:40;94955.41;;;25.86;97.17
11878;BME280;5998;42.676;23.268;2022-09-09T10:41:16;94965.78;;;25.82;98.14
11878;BME280;5998;42.676;23.268;2022-09-09T10:44:16;94965.88;;;25.62;100.00
11878;BME280;5998;42.676;23.268;2022-09-09T10:46:55;94956.44;;;25.44;100.00
11878;BME280;5998;42.676;23.268;2022-09-09T10:49:43;94956.03;;;25.29;100.00
11878;BME280;5998;42.676;23.268;2022-09-09T10:52:19;94961.44;;;25.33;100.00
11878;BME280;5998;42.676;23.268;2022-09-09T10:54:56;94963.28;;;25.39;100.00
11878;BME280;5998;42.676;23.268;2022-09-09T10:57:28;94960.63;;;25.52;100.00
11878;BME280;5998;42.676;23.268;2022-09-09T10:59:59;94958.00;;;25.45;100.00
11878;BME280;5998;42.676;23.268;2022-09-09T11:02:32;94951.81;;;25.24;100.00
11878;BME280;5998;42.676;23.268;2022-09-09T11:05:02;94940.69;;;25.12;100.00
11878;BME280;5998;42.676;23.268;2022-09-09T11:07:35;94958.94;;;25.06;100.00
11878;BME280;5998;42.676;23.268;2022-09-09T11:10:16;94961.03;;;25.02;100.00
11878;BME280;5998;42.676;23.268;2022-09-09T11:12:46;94951.66;;;25.15;100.00
11878;BME280;5998;42.676;23.268;2022-09-09T11:15:20;94948.44;;;25.33;100.00
11878;BME280;5998;42.676;23.268;2022-09-09T11:17:52;94940.63;;;25.32;100.00
11878;BME280;5998;42.676;23.268;2022-09-09T11:20:20;94943.97;;;25.39;100.00
11878;BME280;5998;42.676;23.268;2022-09-09T11:22:50;94937.69;;;25.55;100.00
11878;BME280;5998;42.676;23.268;2022-09-09T11:25:22;94935.03;;;25.51;100.00
11878;BME280;5998;42.676;23.268;2022-09-09T11:28:02;94929.59;;;25.64;100.00
11878;BME280;5998;42.676;23.268;2022-09-09T11:30:38;94915.47;;;25.62;100.00
11878;BME280;5998;42.676;23.268;2022-09-09T11:36:34;94906.31;;;25.65;100.00
11878;BME280;5998;42.676;23.268;2022-09-09T11:39:22;94904.47;;;25.74;100.00
11878;BME280;5998;42.676;23.268;2022-09-09T11:42:05;94887.84;;;25.78;100.00
11878;BME280;5998;42.676;23.268;2022-09-09T11:44:33;94887.13;;;25.90;100.00
11878;BME280;5998;42.676;23.268;2022-09-09T11:47:00;94869.41;;;26.04;100.00
11878;BME280;5998;42.676;23.268;2022-09-09T11:49:28;94846.16;;;26.17;100.00
11878;BME280;5998;42.676;23.268;2022-09-09T11:51:58;94860.44;;;26.41;100.00
11878;BME280;5998;42.676;23.268;2022-09-09T11:54:30;94865.31;;;26.50;100.00
11878;BME280;5998;42.676;23.268;2022-09-09T11:56:57;94859.16;;;26.83;100.00
11878;BME280;5998;42.676;23.268;2022-09-09T11:59:26;94863.22;;;27.04;100.00
11878;BME280;5998;42.676;23.268;2022-09-09T12:01:55;94860.41;;;27.29;100.00
11878;BME280;5998;42.676;23.268;2022-09-09T12:04:32;94839.66;;;27.59;100.00
11878;BME280;5998;42.676;23.268;2022-09-09T12:07:23;94848.03;;;27.68;100.00
11878;BME280;5998;42.676;23.268;2022-09-09T12:09:53;94829.28;;;27.50;100.00
11878;BME280;5998;42.676;23.268;2022-09-09T12:12:28;94838.28;;;27.29;100.00
11878;BME280;5998;42.676;23.268;2022-09-09T12:15:00;94840.44;;;27.60;100.00
11878;BME280;5998;42.676;23.268;2022-09-09T12:17:29;94833.69;;;27.82;100.00
11878;BME280;5998;42.676;23.268;2022-09-09T12:20:01;94834.53;;;27.92;100.00
11878;BME280;5998;42.676;23.268;2022-09-09T12:22:38;94839.38;;;28.22;100.00
11878;BME280;5998;42.676;23.268;2022-09-09T12:25:16;94830.59;;;28.54;99.70
11878;BME280;5998;42.676;23.268;2022-09-09T12:27:53;94834.16;;;28.86;93.70
11878;BME280;5998;42.676;23.268;2022-09-09T12:30:29;94824.81;;;29.10;93.57
11878;BME280;5998;42.676;23.268;2022-09-09T12:33:02;94819.28;;;29.10;90.61
11878;BME280;5998;42.676;23.268;2022-09-09T12:35:29;94823.88;;;29.04;89.92
11878;BME280;5998;42.676;23.268;2022-09-09T12:37:59;94823.69;;;28.90;90.53
11878;BME280;5998;42.676;23.268;2022-09-09T12:40:28;94819.94;;;28.75;88.64
11878;BME280;5998;42.676;23.268;2022-09-09T12:42:55;94831.03;;;28.75;88.84
11878;BME280;5998;42.676;23.268;2022-09-09T12:45:23;94823.94;;;28.74;88.17
11878;BME280;5998;42.676;23.268;2022-09-09T12:47:53;94804.75;;;28.48;88.52
11878;BME280;5998;42.676;23.268;2022-09-09T12:50:25;94811.97;;;28.24;93.07
11878;BME280;5998;42.676;23.268;2022-09-09T12:52:54;94819.50;;;28.02;91.91
11878;BME280;5998;42.676;23.268;2022-09-09T12:55:28;94815.47;;;27.94;93.70
11878;BME280;5998;42.676;23.268;2022-09-09T12:57:56;94812.97;;;27.87;94.18
11878;BME280;5998;42.676;23.268;2022-09-09T13:00:24;94801.63;;;27.72;96.61
11878;BME280;5998;42.676;23.268;2022-09-09T13:02:53;94804.00;;;27.83;97.43
11878;BME280;5998;42.676;23.268;2022-09-09T13:05:23;94800.09;;;27.71;98.01
11878;BME280;5998;42.676;23.268;2022-09-09T13:07:50;94796.97;;;27.47;98.58
11878;BME280;5998;42.676;23.268;2022-09-09T13:10:23;94800.28;;;27.55;100.00
11878;BME280;5998;42.676;23.268;2022-09-09T13:12:53;94788.25;;;27.49;100.00
11878;BME280;5998;42.676;23.268;2022-09-09T13:15:22;94794.19;;;27.60;100.00
11878;BME280;5998;42.676;23.268;2022-09-09T13:17:54;94789.97;;;27.56;100.00